Terminal Aerodrome Forecast
Issued by NWS

Home | Current Version | Previous Version | Text Only | Print | Product List | Glossary On
Versions: 1 2 3 4 5 6 7 8 9 10 11 12 13 14 15 16 17 18 19
000
FTAK31 PAJN 181100
TAFAKT
TAF
PAKT 181134Z 1812/1912 13005KT P6SM -RA BKN008 OVC015
     FM181400 14010KT 5SM -RA BR BKN005 OVC015
     FM181700 14015G24KT 4SM -RA BR BKN012 OVC015 WS020/15040KT
     FM182100 14024G34KT 4SM RA BR OVC012 WS020/15045KT
     FM190400 14018G28KT 5SM -RA BR OVC015 WS020/19035KT
      AMD LTD TO CLD VIS AND WIND 1812/1815=

USA.gov is the U.S. government's official web portal to all federal, state and local government web resources and services.